Time;durP1;ratioP1;P1;durP2;ratioP2;P2;SDS_P1;SDS_P2;PMS_P1;PMS_P2;Temp;Humidity;BMP_temperature;BMP_pressure;BME280_temperature;BME280_humidity;BME280_pressure;Samples;Min_cycle;Max_cycle;Signal;HPM_P1;HPM_P2
2021/01/27 12:09:10;;;;;;;1999.90;999.90;;;6.20;99.90;;;;;;6333802;22;20551;-96
2021/01/27 12:11:57;;;;;;;1999.90;999.90;;;6.20;99.90;;;;;;6337404;22;20026;-96
2021/01/27 12:32:47;;;;;;;1999.90;999.90;;;6.40;99.90;;;;;;6153628;23;20130;-96
2021/01/27 12:38:15;;;;;;;1999.90;999.90;;;6.60;99.90;;;;;;6305169;22;20038;-96
2021/01/27 12:47:58;;;;;;;1999.90;999.90;;;6.80;99.90;;;;;;6331382;22;20031;-96
2021/01/27 13:04:42;;;;;;;1999.90;999.90;;;7.10;99.90;;;;;;6350731;22;20026;-96
2021/01/27 13:22:22;;;;;;;1999.90;999.90;;;7.10;99.90;;;;;;6283374;22;20030;-96
2021/01/27 13:25:21;;;;;;;1999.90;999.90;;;7.20;99.90;;;;;;6292513;22;20019;-96
2021/01/27 13:28:36;;;;;;;1999.90;999.90;;;7.30;99.90;;;;;;6324734;22;20023;-96
2021/01/27 13:45:52;;;;;;;1999.90;999.90;;;7.40;99.90;;;;;;6146741;23;20283;-96
2021/01/27 13:53:02;;;;;;;1999.90;999.90;;;7.40;99.90;;;;;;6140635;23;20012;-96
2021/01/27 13:55:42;;;;;;;1999.90;999.90;;;7.40;99.90;;;;;;6178149;23;20020;-96
2021/01/27 13:58:12;;;;;;;1999.90;999.90;;;7.40;99.90;;;;;;6248214;23;20020;-96
2021/01/27 14:05:24;;;;;;;1999.90;999.90;;;7.40;99.90;;;;;;6136511;23;19997;-96
2021/01/27 14:14:46;;;;;;;1999.90;999.90;;;7.40;99.90;;;;;;6174086;23;20021;-96
2021/01/27 14:35:20;;;;;;;;;;;;;;;;;;;;;
2021/01/27 14:38:34;;;;;;;1999.90;999.90;;;7.40;99.90;;;;;;6227390;23;20020;-96
2021/01/27 14:41:17;;;;;;;1999.90;999.90;;;7.40;99.90;;;;;;6210670;23;20025;-96
2021/01/27 14:43:46;;;;;;;1999.90;999.90;;;7.30;99.90;;;;;;6218892;23;20091;-96
2021/01/27 14:46:16;;;;;;;1999.90;999.90;;;7.40;99.90;;;;;;6218823;23;20021;-96
2021/01/27 14:48:54;;;;;;;1999.90;999.90;;;7.40;99.90;;;;;;6218244;23;20027;-96
2021/01/27 14:51:23;;;;;;;1999.90;999.90;;;7.40;99.90;;;;;;6218465;23;20055;-96
2021/01/27 14:54:18;;;;;;;1999.90;999.90;;;7.40;99.90;;;;;;6218875;23;20087;-96
2021/01/27 14:57:02;;;;;;;1999.90;999.90;;;7.40;99.90;;;;;;6219010;23;20013;-96
2021/01/27 14:59:30;;;;;;;1999.90;999.90;;;7.40;99.90;;;;;;6299052;22;20023;-96
2021/01/27 15:02:01;;;;;;;1999.90;999.90;;;7.40;99.90;;;;;;6311255;22;20019;-96
2021/01/27 15:04:47;;;;;;;1999.90;999.90;;;7.40;99.90;;;;;;6311235;22;20025;-96
2021/01/27 15:07:17;;;;;;;1999.90;999.90;;;7.30;99.90;;;;;;6310739;22;20069;-96
2021/01/27 15:09:51;;;;;;;1999.90;999.90;;;7.30;99.90;;;;;;6310953;22;20015;-96
2021/01/27 15:12:29;;;;;;;1999.90;999.90;;;7.30;99.90;;;;;;6310970;22;20431;-96
2021/01/27 15:15:41;;;;;;;1999.90;999.90;;;7.30;99.90;;;;;;6291716;22;20019;-96
2021/01/27 15:18:21;;;;;;;1999.90;999.90;;;7.20;99.90;;;;;;6325489;22;20019;-96
2021/01/27 15:21:15;;;;;;;1999.90;999.90;;;7.20;99.90;;;;;;6331779;22;20035;-96
2021/01/27 15:32:03;;;;;;;;;;;7.20;99.90;;;;;;6299366;22;20075;-96
2021/01/27 15:35:32;;;;;;;;;;;;;;;;;;;;;
2021/01/27 16:08:56;;;;;;;1999.90;999.90;;;7.20;99.90;;;;;;6214080;23;20021;-96
2021/01/27 16:11:24;;;;;;;1999.90;999.90;;;7.20;99.90;;;;;;6216533;23;20032;-96
2021/01/27 16:13:51;;;;;;;1999.90;999.90;;;7.20;99.90;;;;;;6219559;23;20091;-96
2021/01/27 16:16:24;;;;;;;1999.90;999.90;;;7.20;99.90;;;;;;6217815;23;20406;-96
2021/01/27 16:18:52;;;;;;;1999.90;999.90;;;7.20;99.90;;;;;;6220261;23;20020;-96
2021/01/27 16:24:29;;;;;;;1999.90;999.90;;;7.20;99.90;;;;;;6346514;22;20019;-96
2021/01/27 16:26:56;;;;;;;1999.90;999.90;;;7.30;99.90;;;;;;6345811;22;20021;-95
2021/01/27 16:29:26;;;;;;;1999.90;999.90;;;7.30;99.90;;;;;;6346008;22;20334;-96
2021/01/27 16:39:47;;;;;;;1999.90;999.90;;;7.30;99.90;;;;;;6299531;22;20023;-96
2021/01/27 16:42:26;;;;;;;;;;;;;;;;;;;;;
2021/01/27 16:45:07;;;;;;;1999.90;999.90;;;7.30;99.90;;;;;;6265227;23;20071;-96
2021/01/27 16:48:05;;;;;;;1999.90;999.90;;;7.30;99.90;;;;;;6265942;23;20047;-96
2021/01/27 17:21:37;;;;;;;1999.90;999.90;;;7.30;99.90;;;;;;6276236;22;20159;-95
2021/01/27 17:24:09;;;;;;;1999.90;999.90;;;7.40;99.90;;;;;;6286306;22;20020;-96
2021/01/27 17:26:58;;;;;;;1999.90;999.90;;;7.40;99.90;;;;;;6284963;22;20055;-96
2021/01/27 17:29:47;;;;;;;1999.90;999.90;;;7.40;99.90;;;;;;6252516;22;20023;-96
2021/01/27 17:32:15;;;;;;;1999.90;999.90;;;7.30;99.90;;;;;;6287428;22;20427;-96
2021/01/27 17:34:57;;;;;;;1999.90;999.90;;;7.40;99.90;;;;;;6282821;22;20078;-96
2021/01/27 17:37:36;;;;;;;1999.90;999.90;;;7.30;99.90;;;;;;6287785;22;20015;-96
2021/01/27 17:40:26;;;;;;;1999.90;999.90;;;7.30;99.90;;;;;;6293561;22;20033;-96
2021/01/27 17:43:05;;;;;;;1999.90;999.90;;;7.40;99.90;;;;;;6293946;22;20031;-96
2021/01/27 17:45:47;;;;;;;1999.90;999.90;;;7.40;99.90;;;;;;6279445;22;20016;-96
2021/01/27 17:48:30;;;;;;;;;;;;;;;;;;;;;
2021/01/27 17:51:01;;;;;;;1999.90;999.90;;;7.40;99.90;;;;;;6288191;22;20450;-96
2021/01/27 17:53:31;;;;;;;1999.90;999.90;;;7.40;99.90;;;;;;6280383;22;20347;-95
2021/01/27 17:55:58;;;;;;;1999.90;999.90;;;7.40;99.90;;;;;;6281230;22;20012;-96
2021/01/27 17:58:26;;;;;;;1999.90;999.90;;;7.30;99.90;;;;;;6280213;22;20066;-96
2021/01/27 18:01:02;;;;;;;1999.90;999.90;;;7.40;99.90;;;;;;6287207;22;20019;-96
2021/01/27 18:03:47;;;;;;;1999.90;999.90;;;7.40;99.90;;;;;;6326633;22;20079;-96
2021/01/27 18:18:02;;;;;;;1999.90;999.90;;;7.40;99.90;;;;;;6323690;22;20217;-96
2021/01/27 18:20:48;;;;;;;1999.90;999.90;;;7.50;99.90;;;;;;6324581;22;20030;-96
2021/01/27 18:23:16;;;;;;;1999.90;999.90;;;7.50;99.90;;;;;;6320849;22;20026;-96
2021/01/27 18:25:47;;;;;;;1999.90;999.90;;;7.50;99.90;;;;;;6320443;22;20015;-96
2021/01/27 18:28:20;;;;;;;1999.90;999.90;;;7.50;99.90;;;;;;6321601;22;20102;-96
2021/01/27 18:50:30;;;;;;;1999.90;999.90;;;7.50;99.90;;;;;;6205984;23;20029;-96
2021/01/27 19:45:03;;;;;;;1999.90;999.90;;;7.50;99.90;;;;;;6207567;23;20127;-96
2021/01/27 19:48:26;;;;;;;1999.90;999.90;;;7.40;99.90;;;;;;6187143;23;20074;-96
2021/01/27 19:51:30;;;;;;;1999.90;999.90;;;7.50;99.90;;;;;;6210930;23;20519;-96
2021/01/27 19:54:49;;;;;;;1999.90;999.90;;;7.50;99.90;;;;;;6237255;23;20024;-96
2021/01/27 20:07:52;;;;;;;;;;;;;;;;;;;;;
2021/01/27 20:10:33;;;;;;;;;;;;;;;;;;;;;
2021/01/27 20:21:23;;;;;;;1999.90;999.90;;;7.50;99.90;;;;;;6134164;23;20040;-96
2021/01/27 20:28:00;;;;;;;1999.90;999.90;;;7.40;99.90;;;;;;6011609;23;20435;-96
